sensor_id;sensor_type;location;lat;lon;timestamp;P1;durP1;ratioP1;P2;durP2;ratioP2
7076;SDS011;3579;48.956;9.154;2022-09-21T00:00:52;0.93;;;0.90;;
7076;SDS011;3579;48.956;9.154;2022-09-21T00:03:18;1.20;;;1.10;;
7076;SDS011;3579;48.956;9.154;2022-09-21T00:05:45;1.03;;;0.93;;
7076;SDS011;3579;48.956;9.154;2022-09-21T00:08:11;1.10;;;0.80;;
7076;SDS011;3579;48.956;9.154;2022-09-21T00:10:39;1.10;;;1.00;;
7076;SDS011;3579;48.956;9.154;2022-09-21T00:13:05;1.10;;;1.00;;
7076;SDS011;3579;48.956;9.154;2022-09-21T00:15:33;1.00;;;1.00;;
7076;SDS011;3579;48.956;9.154;2022-09-21T00:17:59;1.00;;;0.90;;
7076;SDS011;3579;48.956;9.154;2022-09-21T00:20:26;1.10;;;1.00;;
7076;SDS011;3579;48.956;9.154;2022-09-21T00:22:53;1.00;;;1.00;;
7076;SDS011;3579;48.956;9.154;2022-09-21T00:25:20;1.07;;;1.00;;
7076;SDS011;3579;48.956;9.154;2022-09-21T00:27:46;1.00;;;0.90;;
7076;SDS011;3579;48.956;9.154;2022-09-21T00:30:16;1.10;;;1.00;;
7076;SDS011;3579;48.956;9.154;2022-09-21T00:32:44;1.13;;;0.90;;
7076;SDS011;3579;48.956;9.154;2022-09-21T00:35:10;0.80;;;0.80;;
7076;SDS011;3579;48.956;9.154;2022-09-21T00:37:36;1.00;;;0.90;;
7076;SDS011;3579;48.956;9.154;2022-09-21T00:40:03;0.97;;;0.90;;
7076;SDS011;3579;48.956;9.154;2022-09-21T00:42:30;0.80;;;0.80;;
7076;SDS011;3579;48.956;9.154;2022-09-21T00:44:58;0.87;;;0.87;;
7076;SDS011;3579;48.956;9.154;2022-09-21T00:47:30;1.07;;;0.97;;
7076;SDS011;3579;48.956;9.154;2022-09-21T00:50:07;0.97;;;0.87;;
7076;SDS011;3579;48.956;9.154;2022-09-21T00:52:40;0.83;;;0.80;;
7076;SDS011;3579;48.956;9.154;2022-09-21T00:55:18;1.10;;;0.90;;
7076;SDS011;3579;48.956;9.154;2022-09-21T00:58:10;0.80;;;0.80;;
7076;SDS011;3579;48.956;9.154;2022-09-21T01:00:42;0.90;;;0.90;;
7076;SDS011;3579;48.956;9.154;2022-09-21T01:03:09;0.87;;;0.87;;
7076;SDS011;3579;48.956;9.154;2022-09-21T01:05:36;0.87;;;0.87;;
7076;SDS011;3579;48.956;9.154;2022-09-21T01:08:03;0.90;;;0.80;;
7076;SDS011;3579;48.956;9.154;2022-09-21T01:13:28;0.80;;;0.80;;
7076;SDS011;3579;48.956;9.154;2022-09-21T01:21:24;0.97;;;0.90;;
7076;SDS011;3579;48.956;9.154;2022-09-21T01:29:31;1.07;;;0.97;;
7076;SDS011;3579;48.956;9.154;2022-09-21T01:32:08;1.10;;;0.90;;
7076;SDS011;3579;48.956;9.154;2022-09-21T01:34:44;0.90;;;0.90;;
7076;SDS011;3579;48.956;9.154;2022-09-21T01:37:17;0.90;;;0.90;;
7076;SDS011;3579;48.956;9.154;2022-09-21T01:39:50;0.70;;;0.70;;
7076;SDS011;3579;48.956;9.154;2022-09-21T01:42:20;0.70;;;0.70;;
7076;SDS011;3579;48.956;9.154;2022-09-21T01:44:47;0.93;;;0.90;;
7076;SDS011;3579;48.956;9.154;2022-09-21T01:47:15;0.80;;;0.80;;
7076;SDS011;3579;48.956;9.154;2022-09-21T01:49:46;1.10;;;1.00;;
7076;SDS011;3579;48.956;9.154;2022-09-21T01:52:18;0.80;;;0.80;;
7076;SDS011;3579;48.956;9.154;2022-09-21T01:55:06;1.07;;;0.97;;
7076;SDS011;3579;48.956;9.154;2022-09-21T02:00:24;0.90;;;0.90;;
7076;SDS011;3579;48.956;9.154;2022-09-21T02:02:52;1.10;;;1.00;;
7076;SDS011;3579;48.956;9.154;2022-09-21T02:05:35;0.90;;;0.90;;
7076;SDS011;3579;48.956;9.154;2022-09-21T02:08:02;1.10;;;1.00;;
7076;SDS011;3579;48.956;9.154;2022-09-21T02:10:35;0.70;;;0.70;;
7076;SDS011;3579;48.956;9.154;2022-09-21T02:13:07;0.90;;;0.90;;
7076;SDS011;3579;48.956;9.154;2022-09-21T02:18:24;1.03;;;0.93;;
7076;SDS011;3579;48.956;9.154;2022-09-21T02:21:38;0.80;;;0.80;;
7076;SDS011;3579;48.956;9.154;2022-09-21T02:30:22;1.00;;;0.90;;
7076;SDS011;3579;48.956;9.154;2022-09-21T02:38:14;1.10;;;1.00;;
7076;SDS011;3579;48.956;9.154;2022-09-21T02:40:56;1.10;;;1.00;;
7076;SDS011;3579;48.956;9.154;2022-09-21T02:43:32;0.93;;;0.93;;
7076;SDS011;3579;48.956;9.154;2022-09-21T02:46:00;1.00;;;0.90;;
7076;SDS011;3579;48.956;9.154;2022-09-21T02:48:33;1.20;;;1.10;;
7076;SDS011;3579;48.956;9.154;2022-09-21T02:51:08;0.70;;;0.70;;
7076;SDS011;3579;48.956;9.154;2022-09-21T02:53:38;0.90;;;0.90;;
7076;SDS011;3579;48.956;9.154;2022-09-21T02:56:06;1.00;;;0.90;;
7076;SDS011;3579;48.956;9.154;2022-09-21T02:58:39;0.80;;;0.80;;
7076;SDS011;3579;48.956;9.154;2022-09-21T03:01:10;0.70;;;0.70;;
7076;SDS011;3579;48.956;9.154;2022-09-21T03:03:37;0.77;;;0.77;;
7076;SDS011;3579;48.956;9.154;2022-09-21T03:06:04;0.80;;;0.80;;
7076;SDS011;3579;48.956;9.154;2022-09-21T03:08:30;1.10;;;1.00;;
7076;SDS011;3579;48.956;9.154;2022-09-21T03:10:56;0.80;;;0.80;;
7076;SDS011;3579;48.956;9.154;2022-09-21T03:13:22;0.83;;;0.83;;
7076;SDS011;3579;48.956;9.154;2022-09-21T03:15:49;0.80;;;0.80;;
7076;SDS011;3579;48.956;9.154;2022-09-21T03:18:23;0.80;;;0.80;;
7076;SDS011;3579;48.956;9.154;2022-09-21T03:20:49;0.70;;;0.70;;
7076;SDS011;3579;48.956;9.154;2022-09-21T03:23:15;0.90;;;0.90;;
7076;SDS011;3579;48.956;9.154;2022-09-21T03:25:44;0.90;;;0.90;;
7076;SDS011;3579;48.956;9.154;2022-09-21T03:28:11;0.97;;;0.90;;
7076;SDS011;3579;48.956;9.154;2022-09-21T03:30:38;0.80;;;0.80;;
7076;SDS011;3579;48.956;9.154;2022-09-21T03:33:05;1.43;;;0.80;;
7076;SDS011;3579;48.956;9.154;2022-09-21T03:35:31;0.90;;;0.90;;
7076;SDS011;3579;48.956;9.154;2022-09-21T03:38:00;1.00;;;1.00;;
7076;SDS011;3579;48.956;9.154;2022-09-21T03:40:26;0.90;;;0.90;;
7076;SDS011;3579;48.956;9.154;2022-09-21T03:42:53;0.90;;;0.90;;
7076;SDS011;3579;48.956;9.154;2022-09-21T03:45:20;0.70;;;0.70;;
7076;SDS011;3579;48.956;9.154;2022-09-21T03:47:47;1.00;;;0.90;;
7076;SDS011;3579;48.956;9.154;2022-09-21T03:50:13;1.03;;;0.80;;
7076;SDS011;3579;48.956;9.154;2022-09-21T03:52:39;1.07;;;0.97;;
7076;SDS011;3579;48.956;9.154;2022-09-21T03:55:06;1.30;;;1.20;;
7076;SDS011;3579;48.956;9.154;2022-09-21T03:57:34;1.03;;;0.87;;
7076;SDS011;3579;48.956;9.154;2022-09-21T04:00:02;1.00;;;1.00;;
7076;SDS011;3579;48.956;9.154;2022-09-21T04:02:31;0.97;;;0.97;;
7076;SDS011;3579;48.956;9.154;2022-09-21T04:04:57;1.00;;;0.90;;
7076;SDS011;3579;48.956;9.154;2022-09-21T04:07:23;0.97;;;0.97;;
7076;SDS011;3579;48.956;9.154;2022-09-21T04:09:50;0.80;;;0.80;;
7076;SDS011;3579;48.956;9.154;2022-09-21T04:12:19;0.80;;;0.80;;
7076;SDS011;3579;48.956;9.154;2022-09-21T04:14:46;1.10;;;1.00;;
7076;SDS011;3579;48.956;9.154;2022-09-21T04:17:14;0.93;;;0.83;;
7076;SDS011;3579;48.956;9.154;2022-09-21T04:19:40;0.90;;;0.90;;
7076;SDS011;3579;48.956;9.154;2022-09-21T04:22:06;1.10;;;1.00;;
7076;SDS011;3579;48.956;9.154;2022-09-21T04:24:32;0.90;;;0.90;;
7076;SDS011;3579;48.956;9.154;2022-09-21T04:26:59;0.90;;;0.80;;
7076;SDS011;3579;48.956;9.154;2022-09-21T04:29:24;0.87;;;0.87;;
7076;SDS011;3579;48.956;9.154;2022-09-21T04:31:51;0.90;;;0.90;;
7076;SDS011;3579;48.956;9.154;2022-09-21T04:34:17;0.90;;;0.90;;
7076;SDS011;3579;48.956;9.154;2022-09-21T04:36:43;0.90;;;0.90;;
7076;SDS011;3579;48.956;9.154;2022-09-21T04:39:10;0.90;;;0.90;;
7076;SDS011;3579;48.956;9.154;2022-09-21T04:41:36;0.93;;;0.93;;
7076;SDS011;3579;48.956;9.154;2022-09-21T04:44:03;0.83;;;0.83;;
7076;SDS011;3579;48.956;9.154;2022-09-21T04:46:29;1.20;;;1.10;;
7076;SDS011;3579;48.956;9.154;2022-09-21T04:48:55;0.80;;;0.80;;
7076;SDS011;3579;48.956;9.154;2022-09-21T04:51:21;0.80;;;0.80;;
7076;SDS011;3579;48.956;9.154;2022-09-21T04:53:47;0.90;;;0.90;;
7076;SDS011;3579;48.956;9.154;2022-09-21T04:56:14;1.00;;;0.83;;
7076;SDS011;3579;48.956;9.154;2022-09-21T04:58:40;0.87;;;0.87;;
7076;SDS011;3579;48.956;9.154;2022-09-21T05:01:07;0.80;;;0.80;;
7076;SDS011;3579;48.956;9.154;2022-09-21T05:03:33;0.90;;;0.90;;
7076;SDS011;3579;48.956;9.154;2022-09-21T05:05:59;0.80;;;0.80;;
7076;SDS011;3579;48.956;9.154;2022-09-21T05:08:26;0.90;;;0.90;;
7076;SDS011;3579;48.956;9.154;2022-09-21T05:11:13;1.13;;;1.07;;
7076;SDS011;3579;48.956;9.154;2022-09-21T05:13:44;0.90;;;0.90;;
7076;SDS011;3579;48.956;9.154;2022-09-21T05:16:12;0.93;;;0.90;;
7076;SDS011;3579;48.956;9.154;2022-09-21T05:18:39;0.80;;;0.80;;
7076;SDS011;3579;48.956;9.154;2022-09-21T05:21:05;0.90;;;0.90;;
7076;SDS011;3579;48.956;9.154;2022-09-21T05:23:31;0.80;;;0.80;;
7076;SDS011;3579;48.956;9.154;2022-09-21T05:25:58;0.87;;;0.87;;
7076;SDS011;3579;48.956;9.154;2022-09-21T05:28:24;0.90;;;0.90;;
7076;SDS011;3579;48.956;9.154;2022-09-21T05:33:19;0.90;;;0.90;;
7076;SDS011;3579;48.956;9.154;2022-09-21T05:38:46;0.93;;;0.87;;
7076;SDS011;3579;48.956;9.154;2022-09-21T05:41:12;1.00;;;0.90;;
7076;SDS011;3579;48.956;9.154;2022-09-21T05:43:39;0.90;;;0.90;;
7076;SDS011;3579;48.956;9.154;2022-09-21T05:46:08;1.40;;;0.90;;
7076;SDS011;3579;48.956;9.154;2022-09-21T05:48:40;0.80;;;0.80;;
7076;SDS011;3579;48.956;9.154;2022-09-21T05:54:14;1.10;;;1.00;;
7076;SDS011;3579;48.956;9.154;2022-09-21T06:05:17;0.90;;;0.90;;
7076;SDS011;3579;48.956;9.154;2022-09-21T06:07:43;1.20;;;1.10;;
7076;SDS011;3579;48.956;9.154;2022-09-21T06:10:13;1.10;;;1.00;;
7076;SDS011;3579;48.956;9.154;2022-09-21T06:12:40;2.23;;;0.90;;
7076;SDS011;3579;48.956;9.154;2022-09-21T06:15:09;1.63;;;1.10;;
7076;SDS011;3579;48.956;9.154;2022-09-21T06:17:37;1.00;;;1.00;;
7076;SDS011;3579;48.956;9.154;2022-09-21T06:20:03;1.10;;;1.00;;
7076;SDS011;3579;48.956;9.154;2022-09-21T06:22:32;1.20;;;1.10;;
7076;SDS011;3579;48.956;9.154;2022-09-21T06:24:58;1.20;;;1.10;;
7076;SDS011;3579;48.956;9.154;2022-09-21T06:27:26;1.07;;;0.97;;
7076;SDS011;3579;48.956;9.154;2022-09-21T06:29:52;1.13;;;1.03;;
7076;SDS011;3579;48.956;9.154;2022-09-21T06:32:19;1.20;;;1.10;;
7076;SDS011;3579;48.956;9.154;2022-09-21T06:34:45;8.23;;;2.10;;
7076;SDS011;3579;48.956;9.154;2022-09-21T06:37:11;6.10;;;2.60;;
7076;SDS011;3579;48.956;9.154;2022-09-21T06:39:37;3.60;;;2.37;;
7076;SDS011;3579;48.956;9.154;2022-09-21T06:42:03;4.30;;;2.70;;
7076;SDS011;3579;48.956;9.154;2022-09-21T06:44:29;6.93;;;2.30;;
7076;SDS011;3579;48.956;9.154;2022-09-21T06:46:56;3.53;;;2.30;;
7076;SDS011;3579;48.956;9.154;2022-09-21T06:49:22;3.70;;;2.10;;
7076;SDS011;3579;48.956;9.154;2022-09-21T06:51:48;3.57;;;2.10;;
7076;SDS011;3579;48.956;9.154;2022-09-21T06:54:14;3.77;;;2.10;;
7076;SDS011;3579;48.956;9.154;2022-09-21T06:56:41;5.83;;;2.00;;
7076;SDS011;3579;48.956;9.154;2022-09-21T06:59:08;4.57;;;2.00;;
7076;SDS011;3579;48.956;9.154;2022-09-21T07:01:35;5.50;;;2.00;;
7076;SDS011;3579;48.956;9.154;2022-09-21T07:04:01;2.80;;;2.00;;
7076;SDS011;3579;48.956;9.154;2022-09-21T07:06:27;2.77;;;2.03;;
7076;SDS011;3579;48.956;9.154;2022-09-21T07:08:54;5.50;;;2.37;;
7076;SDS011;3579;48.956;9.154;2022-09-21T07:11:20;2.83;;;1.80;;
7076;SDS011;3579;48.956;9.154;2022-09-21T07:13:48;4.43;;;2.17;;
7076;SDS011;3579;48.956;9.154;2022-09-21T07:16:14;4.80;;;1.90;;
7076;SDS011;3579;48.956;9.154;2022-09-21T07:18:41;2.87;;;1.80;;
7076;SDS011;3579;48.956;9.154;2022-09-21T07:21:08;2.27;;;1.70;;
7076;SDS011;3579;48.956;9.154;2022-09-21T07:23:37;2.50;;;1.50;;
7076;SDS011;3579;48.956;9.154;2022-09-21T07:26:05;4.07;;;1.97;;
7076;SDS011;3579;48.956;9.154;2022-09-21T07:28:34;6.13;;;1.70;;
7076;SDS011;3579;48.956;9.154;2022-09-21T07:33:33;6.43;;;1.90;;
7076;SDS011;3579;48.956;9.154;2022-09-21T07:36:00;7.03;;;2.00;;
7076;SDS011;3579;48.956;9.154;2022-09-21T07:38:31;4.67;;;2.10;;
7076;SDS011;3579;48.956;9.154;2022-09-21T07:41:00;4.00;;;1.70;;
7076;SDS011;3579;48.956;9.154;2022-09-21T07:43:27;6.77;;;1.80;;
7076;SDS011;3579;48.956;9.154;2022-09-21T07:45:54;6.77;;;2.00;;
7076;SDS011;3579;48.956;9.154;2022-09-21T07:48:21;7.73;;;1.90;;
7076;SDS011;3579;48.956;9.154;2022-09-21T07:50:48;4.63;;;1.97;;
7076;SDS011;3579;48.956;9.154;2022-09-21T07:53:14;6.97;;;1.97;;
7076;SDS011;3579;48.956;9.154;2022-09-21T07:55:42;7.43;;;2.40;;
7076;SDS011;3579;48.956;9.154;2022-09-21T07:58:09;9.03;;;3.03;;
7076;SDS011;3579;48.956;9.154;2022-09-21T08:00:54;9.67;;;3.10;;
7076;SDS011;3579;48.956;9.154;2022-09-21T08:03:21;5.90;;;3.20;;
7076;SDS011;3579;48.956;9.154;2022-09-21T08:05:47;8.40;;;3.40;;
7076;SDS011;3579;48.956;9.154;2022-09-21T08:08:14;6.50;;;2.97;;
7076;SDS011;3579;48.956;9.154;2022-09-21T08:10:41;10.63;;;3.07;;
7076;SDS011;3579;48.956;9.154;2022-09-21T08:13:08;9.73;;;3.20;;
7076;SDS011;3579;48.956;9.154;2022-09-21T08:15:34;11.80;;;3.47;;
7076;SDS011;3579;48.956;9.154;2022-09-21T08:18:02;14.47;;;3.77;;
7076;SDS011;3579;48.956;9.154;2022-09-21T08:20:31;6.67;;;3.30;;
7076;SDS011;3579;48.956;9.154;2022-09-21T08:22:58;4.57;;;2.93;;
7076;SDS011;3579;48.956;9.154;2022-09-21T08:25:26;5.23;;;3.37;;
7076;SDS011;3579;48.956;9.154;2022-09-21T08:27:57;5.30;;;3.00;;
7076;SDS011;3579;48.956;9.154;2022-09-21T08:30:25;6.03;;;3.03;;
7076;SDS011;3579;48.956;9.154;2022-09-21T08:32:53;7.70;;;3.43;;
7076;SDS011;3579;48.956;9.154;2022-09-21T08:35:19;7.63;;;2.70;;
7076;SDS011;3579;48.956;9.154;2022-09-21T08:37:46;8.53;;;2.67;;
7076;SDS011;3579;48.956;9.154;2022-09-21T08:40:15;12.97;;;2.73;;
7076;SDS011;3579;48.956;9.154;2022-09-21T08:42:45;4.67;;;2.50;;
7076;SDS011;3579;48.956;9.154;2022-09-21T08:45:45;7.67;;;2.40;;
7076;SDS011;3579;48.956;9.154;2022-09-21T08:48:22;6.50;;;2.13;;
7076;SDS011;3579;48.956;9.154;2022-09-21T08:51:01;5.00;;;2.20;;
7076;SDS011;3579;48.956;9.154;2022-09-21T08:53:40;6.67;;;2.43;;
7076;SDS011;3579;48.956;9.154;2022-09-21T08:56:11;5.20;;;2.20;;
7076;SDS011;3579;48.956;9.154;2022-09-21T08:58:38;5.57;;;1.90;;
7076;SDS011;3579;48.956;9.154;2022-09-21T09:18:43;5.37;;;1.83;;
7076;SDS011;3579;48.956;9.154;2022-09-21T09:21:21;3.37;;;1.83;;
7076;SDS011;3579;48.956;9.154;2022-09-21T09:27:02;7.00;;;2.00;;
7076;SDS011;3579;48.956;9.154;2022-09-21T09:32:14;6.00;;;2.20;;
7076;SDS011;3579;48.956;9.154;2022-09-21T09:34:44;3.80;;;2.00;;
7076;SDS011;3579;48.956;9.154;2022-09-21T09:37:31;4.70;;;2.13;;
7076;SDS011;3579;48.956;9.154;2022-09-21T09:40:10;3.50;;;2.07;;
7076;SDS011;3579;48.956;9.154;2022-09-21T09:50:53;3.77;;;2.00;;
7076;SDS011;3579;48.956;9.154;2022-09-21T09:53:21;3.97;;;2.03;;
7076;SDS011;3579;48.956;9.154;2022-09-21T09:55:50;6.83;;;2.23;;
7076;SDS011;3579;48.956;9.154;2022-09-21T09:58:19;3.20;;;1.90;;
7076;SDS011;3579;48.956;9.154;2022-09-21T10:00:52;5.50;;;2.00;;
7076;SDS011;3579;48.956;9.154;2022-09-21T10:03:20;7.27;;;2.00;;
7076;SDS011;3579;48.956;9.154;2022-09-21T10:05:53;6.10;;;2.20;;
7076;SDS011;3579;48.956;9.154;2022-09-21T10:11:08;6.33;;;2.00;;
7076;SDS011;3579;48.956;9.154;2022-09-21T10:13:37;5.07;;;2.07;;
7076;SDS011;3579;48.956;9.154;2022-09-21T10:18:50;3.17;;;2.00;;
7076;SDS011;3579;48.956;9.154;2022-09-21T10:21:35;5.87;;;2.20;;
7076;SDS011;3579;48.956;9.154;2022-09-21T10:24:05;6.30;;;2.20;;
7076;SDS011;3579;48.956;9.154;2022-09-21T10:26:54;3.93;;;1.90;;
7076;SDS011;3579;48.956;9.154;2022-09-21T10:29:44;3.83;;;2.00;;
7076;SDS011;3579;48.956;9.154;2022-09-21T10:34:42;3.13;;;1.50;;
7076;SDS011;3579;48.956;9.154;2022-09-21T10:37:39;3.67;;;1.93;;
7076;SDS011;3579;48.956;9.154;2022-09-21T10:42:44;5.57;;;1.98;;
7076;SDS011;3579;48.956;9.154;2022-09-21T10:45:14;4.50;;;1.90;;
7076;SDS011;3579;48.956;9.154;2022-09-21T10:47:45;5.63;;;2.17;;
7076;SDS011;3579;48.956;9.154;2022-09-21T10:55:38;5.23;;;2.17;;
7076;SDS011;3579;48.956;9.154;2022-09-21T10:58:18;8.30;;;2.63;;
7076;SDS011;3579;48.956;9.154;2022-09-21T11:00:48;6.00;;;1.90;;
7076;SDS011;3579;48.956;9.154;2022-09-21T11:06:21;2.00;;;1.60;;
7076;SDS011;3579;48.956;9.154;2022-09-21T11:08:54;4.17;;;1.90;;
7076;SDS011;3579;48.956;9.154;2022-09-21T11:14:18;2.60;;;1.63;;
7076;SDS011;3579;48.956;9.154;2022-09-21T11:17:10;2.47;;;1.70;;
7076;SDS011;3579;48.956;9.154;2022-09-21T11:19:49;2.23;;;1.70;;
7076;SDS011;3579;48.956;9.154;2022-09-21T11:22:31;3.17;;;2.00;;
7076;SDS011;3579;48.956;9.154;2022-09-21T11:27:50;3.07;;;1.63;;
7076;SDS011;3579;48.956;9.154;2022-09-21T11:30:29;2.43;;;1.47;;
7076;SDS011;3579;48.956;9.154;2022-09-21T11:44:54;4.33;;;1.67;;
7076;SDS011;3579;48.956;9.154;2022-09-21T11:47:30;2.13;;;1.30;;
7076;SDS011;3579;48.956;9.154;2022-09-21T11:50:17;4.73;;;1.50;;
7076;SDS011;3579;48.956;9.154;2022-09-21T11:53:24;3.33;;;1.40;;
7076;SDS011;3579;48.956;9.154;2022-09-21T12:02:15;3.30;;;1.20;;
7076;SDS011;3579;48.956;9.154;2022-09-21T12:05:14;2.43;;;1.10;;
7076;SDS011;3579;48.956;9.154;2022-09-21T12:14:12;3.53;;;1.27;;
7076;SDS011;3579;48.956;9.154;2022-09-21T12:16:56;2.70;;;1.37;;
7076;SDS011;3579;48.956;9.154;2022-09-21T12:19:45;3.73;;;1.33;;
7076;SDS011;3579;48.956;9.154;2022-09-21T12:22:37;1.30;;;1.00;;
7076;SDS011;3579;48.956;9.154;2022-09-21T12:25:14;3.42;;;1.33;;
7076;SDS011;3579;48.956;9.154;2022-09-21T12:30:18;3.10;;;1.50;;
7076;SDS011;3579;48.956;9.154;2022-09-21T12:33:03;2.63;;;1.10;;
7076;SDS011;3579;48.956;9.154;2022-09-21T12:35:46;1.60;;;1.00;;
7076;SDS011;3579;48.956;9.154;2022-09-21T12:38:29;3.17;;;1.10;;
7076;SDS011;3579;48.956;9.154;2022-09-21T12:41:16;3.07;;;1.10;;
7076;SDS011;3579;48.956;9.154;2022-09-21T12:44:13;2.80;;;1.20;;
7076;SDS011;3579;48.956;9.154;2022-09-21T12:49:52;2.53;;;0.93;;
7076;SDS011;3579;48.956;9.154;2022-09-21T12:52:24;1.77;;;1.10;;
7076;SDS011;3579;48.956;9.154;2022-09-21T12:54:54;1.77;;;1.10;;
7076;SDS011;3579;48.956;9.154;2022-09-21T13:00:33;2.00;;;1.20;;
7076;SDS011;3579;48.956;9.154;2022-09-21T13:03:28;2.23;;;1.20;;
7076;SDS011;3579;48.956;9.154;2022-09-21T13:09:03;1.73;;;1.13;;
7076;SDS011;3579;48.956;9.154;2022-09-21T13:11:31;1.93;;;1.07;;
7076;SDS011;3579;48.956;9.154;2022-09-21T13:13:59;3.37;;;1.03;;
7076;SDS011;3579;48.956;9.154;2022-09-21T13:16:29;1.93;;;1.00;;
7076;SDS011;3579;48.956;9.154;2022-09-21T13:19:02;3.67;;;1.00;;
7076;SDS011;3579;48.956;9.154;2022-09-21T13:21:38;2.57;;;0.97;;
7076;SDS011;3579;48.956;9.154;2022-09-21T13:24:20;3.53;;;1.00;;
7076;SDS011;3579;48.956;9.154;2022-09-21T13:26:54;1.43;;;1.10;;
7076;SDS011;3579;48.956;9.154;2022-09-21T13:29:26;2.85;;;1.20;;
7076;SDS011;3579;48.956;9.154;2022-09-21T13:32:00;4.13;;;0.90;;
7076;SDS011;3579;48.956;9.154;2022-09-21T13:39:47;3.60;;;1.20;;
7076;SDS011;3579;48.956;9.154;2022-09-21T13:44:58;2.93;;;1.20;;
7076;SDS011;3579;48.956;9.154;2022-09-21T13:47:35;2.13;;;1.10;;
7076;SDS011;3579;48.956;9.154;2022-09-21T13:53:04;2.83;;;1.30;;
7076;SDS011;3579;48.956;9.154;2022-09-21T13:55:51;2.03;;;1.20;;
7076;SDS011;3579;48.956;9.154;2022-09-21T13:58:21;2.53;;;1.00;;
7076;SDS011;3579;48.956;9.154;2022-09-21T14:00:52;3.10;;;1.20;;
7076;SDS011;3579;48.956;9.154;2022-09-21T14:03:24;1.60;;;1.10;;
7076;SDS011;3579;48.956;9.154;2022-09-21T14:09:00;2.27;;;1.33;;
7076;SDS011;3579;48.956;9.154;2022-09-21T14:11:39;1.87;;;1.43;;
7076;SDS011;3579;48.956;9.154;2022-09-21T14:14:13;1.40;;;1.10;;
7076;SDS011;3579;48.956;9.154;2022-09-21T14:16:57;1.30;;;1.10;;
7076;SDS011;3579;48.956;9.154;2022-09-21T14:24:37;2.63;;;1.30;;
7076;SDS011;3579;48.956;9.154;2022-09-21T14:29:51;1.30;;;1.20;;
7076;SDS011;3579;48.956;9.154;2022-09-21T14:32:33;2.03;;;1.27;;
7076;SDS011;3579;48.956;9.154;2022-09-21T14:35:32;1.63;;;1.13;;
7076;SDS011;3579;48.956;9.154;2022-09-21T14:40:51;1.53;;;1.20;;
7076;SDS011;3579;48.956;9.154;2022-09-21T14:43:24;1.60;;;1.10;;
7076;SDS011;3579;48.956;9.154;2022-09-21T14:57:04;2.07;;;1.10;;
7076;SDS011;3579;48.956;9.154;2022-09-21T15:02:39;1.20;;;1.10;;
7076;SDS011;3579;48.956;9.154;2022-09-21T15:11:38;2.00;;;1.37;;
7076;SDS011;3579;48.956;9.154;2022-09-21T15:14:12;2.20;;;1.20;;
7076;SDS011;3579;48.956;9.154;2022-09-21T15:16:47;1.90;;;1.10;;
7076;SDS011;3579;48.956;9.154;2022-09-21T15:19:25;4.57;;;1.30;;
7076;SDS011;3579;48.956;9.154;2022-09-21T15:21:53;2.73;;;1.40;;
7076;SDS011;3579;48.956;9.154;2022-09-21T15:24:47;2.47;;;1.30;;
7076;SDS011;3579;48.956;9.154;2022-09-21T15:27:14;1.60;;;1.20;;
7076;SDS011;3579;48.956;9.154;2022-09-21T15:29:50;3.17;;;1.00;;
7076;SDS011;3579;48.956;9.154;2022-09-21T15:37:52;2.03;;;1.17;;
7076;SDS011;3579;48.956;9.154;2022-09-21T15:47:58;2.63;;;1.30;;
7076;SDS011;3579;48.956;9.154;2022-09-21T15:50:25;2.17;;;1.20;;
7076;SDS011;3579;48.956;9.154;2022-09-21T15:52:56;1.30;;;1.00;;
7076;SDS011;3579;48.956;9.154;2022-09-21T15:55:26;2.57;;;1.30;;
7076;SDS011;3579;48.956;9.154;2022-09-21T15:58:02;1.57;;;1.10;;
7076;SDS011;3579;48.956;9.154;2022-09-21T16:01:18;2.07;;;1.10;;
7076;SDS011;3579;48.956;9.154;2022-09-21T16:04:04;3.30;;;1.17;;
7076;SDS011;3579;48.956;9.154;2022-09-21T16:11:56;1.33;;;1.10;;
7076;SDS011;3579;48.956;9.154;2022-09-21T16:14:23;2.77;;;1.10;;
7076;SDS011;3579;48.956;9.154;2022-09-21T16:19:43;1.10;;;1.00;;
7076;SDS011;3579;48.956;9.154;2022-09-21T16:22:17;1.40;;;1.10;;
7076;SDS011;3579;48.956;9.154;2022-09-21T16:24:51;1.70;;;1.00;;
7076;SDS011;3579;48.956;9.154;2022-09-21T16:27:22;1.63;;;1.03;;
7076;SDS011;3579;48.956;9.154;2022-09-21T16:29:49;2.13;;;1.20;;
7076;SDS011;3579;48.956;9.154;2022-09-21T16:34:43;1.20;;;1.10;;
7076;SDS011;3579;48.956;9.154;2022-09-21T16:37:28;1.17;;;0.97;;
7076;SDS011;3579;48.956;9.154;2022-09-21T16:39:55;1.50;;;1.23;;
7076;SDS011;3579;48.956;9.154;2022-09-21T16:42:25;1.97;;;1.00;;
7076;SDS011;3579;48.956;9.154;2022-09-21T16:44:58;1.77;;;1.00;;
7076;SDS011;3579;48.956;9.154;2022-09-21T16:47:25;1.60;;;1.00;;
7076;SDS011;3579;48.956;9.154;2022-09-21T16:49:53;1.60;;;1.10;;
7076;SDS011;3579;48.956;9.154;2022-09-21T16:52:28;1.43;;;1.20;;
7076;SDS011;3579;48.956;9.154;2022-09-21T16:54:55;1.80;;;1.20;;
7076;SDS011;3579;48.956;9.154;2022-09-21T16:57:23;1.93;;;1.30;;
7076;SDS011;3579;48.956;9.154;2022-09-21T16:59:50;1.10;;;1.00;;
7076;SDS011;3579;48.956;9.154;2022-09-21T17:02:17;1.53;;;1.00;;
7076;SDS011;3579;48.956;9.154;2022-09-21T17:04:43;1.00;;;0.90;;
7076;SDS011;3579;48.956;9.154;2022-09-21T17:07:10;2.13;;;1.37;;
7076;SDS011;3579;48.956;9.154;2022-09-21T17:09:38;1.70;;;0.97;;
7076;SDS011;3579;48.956;9.154;2022-09-21T17:12:09;1.43;;;1.20;;
7076;SDS011;3579;48.956;9.154;2022-09-21T17:14:38;2.83;;;1.20;;
7076;SDS011;3579;48.956;9.154;2022-09-21T17:17:18;3.00;;;1.07;;
7076;SDS011;3579;48.956;9.154;2022-09-21T17:19:46;1.20;;;1.10;;
7076;SDS011;3579;48.956;9.154;2022-09-21T17:22:17;1.33;;;1.10;;
7076;SDS011;3579;48.956;9.154;2022-09-21T17:24:47;1.53;;;1.13;;
7076;SDS011;3579;48.956;9.154;2022-09-21T17:27:15;2.57;;;1.27;;
7076;SDS011;3579;48.956;9.154;2022-09-21T17:29:43;2.27;;;1.00;;
7076;SDS011;3579;48.956;9.154;2022-09-21T17:32:13;1.10;;;1.00;;
7076;SDS011;3579;48.956;9.154;2022-09-21T17:34:40;1.43;;;1.20;;
7076;SDS011;3579;48.956;9.154;2022-09-21T17:37:07;2.13;;;1.30;;
7076;SDS011;3579;48.956;9.154;2022-09-21T17:39:36;1.23;;;1.03;;
7076;SDS011;3579;48.956;9.154;2022-09-21T17:47:37;1.40;;;1.20;;
7076;SDS011;3579;48.956;9.154;2022-09-21T17:52:41;2.13;;;1.20;;
7076;SDS011;3579;48.956;9.154;2022-09-21T17:55:27;1.63;;;1.20;;
7076;SDS011;3579;48.956;9.154;2022-09-21T17:58:15;1.10;;;1.00;;
7076;SDS011;3579;48.956;9.154;2022-09-21T18:03:36;1.53;;;1.10;;
7076;SDS011;3579;48.956;9.154;2022-09-21T18:06:07;1.30;;;0.97;;
7076;SDS011;3579;48.956;9.154;2022-09-21T18:08:34;1.13;;;1.03;;
7076;SDS011;3579;48.956;9.154;2022-09-21T18:11:04;1.43;;;1.00;;
7076;SDS011;3579;48.956;9.154;2022-09-21T18:13:45;1.93;;;1.13;;
7076;SDS011;3579;48.956;9.154;2022-09-21T18:16:33;4.20;;;1.10;;
7076;SDS011;3579;48.956;9.154;2022-09-21T18:19:04;1.70;;;1.13;;
7076;SDS011;3579;48.956;9.154;2022-09-21T18:21:46;1.10;;;1.00;;
7076;SDS011;3579;48.956;9.154;2022-09-21T18:26:51;1.07;;;0.93;;
7076;SDS011;3579;48.956;9.154;2022-09-21T18:50:58;1.10;;;1.00;;
7076;SDS011;3579;48.956;9.154;2022-09-21T18:56:13;1.20;;;0.90;;
7076;SDS011;3579;48.956;9.154;2022-09-21T18:58:40;1.13;;;1.03;;
7076;SDS011;3579;48.956;9.154;2022-09-21T19:01:12;2.50;;;1.10;;
7076;SDS011;3579;48.956;9.154;2022-09-21T19:03:40;2.00;;;1.17;;
7076;SDS011;3579;48.956;9.154;2022-09-21T19:12:09;1.30;;;1.20;;
7076;SDS011;3579;48.956;9.154;2022-09-21T19:14:50;1.57;;;1.10;;
7076;SDS011;3579;48.956;9.154;2022-09-21T19:20:08;1.40;;;1.00;;
7076;SDS011;3579;48.956;9.154;2022-09-21T19:28:54;1.97;;;1.10;;
7076;SDS011;3579;48.956;9.154;2022-09-21T19:31:11;1.40;;;1.07;;
7076;SDS011;3579;48.956;9.154;2022-09-21T19:33:39;1.87;;;1.00;;
7076;SDS011;3579;48.956;9.154;2022-09-21T19:36:07;1.10;;;1.00;;
7076;SDS011;3579;48.956;9.154;2022-09-21T19:38:34;1.53;;;0.97;;
7076;SDS011;3579;48.956;9.154;2022-09-21T19:41:12;1.50;;;0.97;;
7076;SDS011;3579;48.956;9.154;2022-09-21T19:43:41;1.27;;;1.17;;
7076;SDS011;3579;48.956;9.154;2022-09-21T19:46:58;2.33;;;1.07;;
7076;SDS011;3579;48.956;9.154;2022-09-21T19:49:50;1.10;;;1.00;;
7076;SDS011;3579;48.956;9.154;2022-09-21T19:52:25;1.20;;;1.10;;
7076;SDS011;3579;48.956;9.154;2022-09-21T19:54:56;1.50;;;1.10;;
7076;SDS011;3579;48.956;9.154;2022-09-21T19:57:41;1.30;;;1.10;;
7076;SDS011;3579;48.956;9.154;2022-09-21T20:00:26;1.10;;;1.00;;
7076;SDS011;3579;48.956;9.154;2022-09-21T20:03:03;1.20;;;1.00;;
7076;SDS011;3579;48.956;9.154;2022-09-21T20:05:38;1.57;;;1.00;;
7076;SDS011;3579;48.956;9.154;2022-09-21T20:08:44;1.30;;;1.20;;